createdAt,value
2019-05-18T00:00:49.181Z,0.00
2019-05-18T00:01:49.209Z,0.00
2019-05-18T00:02:49.234Z,0.00
2019-05-18T00:03:49.261Z,0.00
2019-05-18T00:04:49.294Z,0.00
2019-05-18T00:05:49.315Z,0.00
2019-05-18T00:06:49.338Z,0.00
2019-05-18T00:07:49.362Z,0.00
2019-05-18T00:08:49.392Z,0.00
2019-05-18T00:09:49.422Z,0.00
2019-05-18T00:10:49.451Z,0.00
2019-05-18T00:11:49.481Z,0.00
2019-05-18T00:12:49.494Z,0.00
2019-05-18T00:13:49.523Z,0.00
2019-05-18T00:14:49.546Z,0.00
2019-05-18T00:15:49.581Z,0.00
2019-05-18T00:16:49.648Z,0.00
2019-05-18T00:17:49.631Z,0.00
2019-05-18T00:18:49.657Z,0.00
2019-05-18T00:19:49.678Z,0.00
2019-05-18T00:20:49.705Z,0.00
2019-05-18T00:21:49.731Z,0.00
2019-05-18T00:22:49.755Z,0.00
2019-05-18T00:23:49.780Z,0.00
2019-05-18T00:24:49.807Z,0.00
2019-05-18T00:25:49.833Z,0.00
2019-05-18T00:26:49.859Z,0.00
2019-05-18T00:27:49.886Z,0.00
2019-05-18T00:29:02.649Z,0.00
2019-05-18T00:29:49.941Z,0.00
2019-05-18T00:30:49.967Z,0.00
2019-05-18T00:31:49.987Z,0.00
2019-05-18T00:32:50.015Z,0.00
2019-05-18T00:33:50.042Z,0.00
2019-05-18T00:34:50.069Z,0.00
2019-05-18T00:35:50.094Z,0.00
2019-05-18T00:36:50.121Z,0.00
2019-05-18T00:37:50.145Z,0.00
2019-05-18T00:38:50.170Z,0.00
2019-05-18T00:39:50.198Z,0.00
2019-05-18T00:40:50.228Z,0.00
2019-05-18T00:41:50.251Z,0.00
2019-05-18T00:42:50.274Z,0.00
2019-05-18T00:43:50.328Z,0.00
2019-05-18T00:44:50.328Z,0.00
2019-05-18T00:45:50.404Z,0.00
2019-05-18T00:46:50.378Z,0.00
2019-05-18T00:47:50.406Z,0.00
2019-05-18T00:48:50.432Z,0.00
2019-05-18T00:49:50.458Z,0.00
2019-05-18T00:50:50.492Z,0.00
2019-05-18T00:51:50.608Z,0.00
2019-05-18T00:52:50.534Z,0.00
2019-05-18T00:53:50.581Z,0.00
2019-05-18T00:54:50.590Z,0.00
2019-05-18T00:55:50.610Z,0.00
2019-05-18T00:56:50.636Z,0.00
2019-05-18T00:57:50.679Z,0.00
2019-05-18T00:58:50.692Z,0.00
2019-05-18T00:59:50.716Z,0.00
2019-05-18T01:00:50.795Z,0.00
2019-05-18T01:01:50.770Z,0.00
2019-05-18T01:02:50.800Z,0.00
2019-05-18T01:03:50.822Z,0.00
2019-05-18T01:04:50.847Z,0.00
2019-05-18T01:05:50.870Z,0.00
2019-05-18T01:06:50.901Z,0.00
2019-05-18T01:07:50.925Z,0.00
2019-05-18T01:08:50.954Z,0.00
2019-05-18T01:09:50.982Z,0.00
2019-05-18T01:10:51.002Z,0.00
2019-05-18T01:11:51.027Z,0.00
2019-05-18T01:12:51.066Z,0.00
2019-05-18T01:13:51.080Z,0.00
2019-05-18T01:14:51.107Z,0.00
2019-05-18T01:15:51.135Z,0.00
2019-05-18T01:16:51.157Z,0.00
2019-05-18T01:17:57.259Z,0.00
2019-05-18T01:18:51.208Z,0.00
2019-05-18T01:19:51.231Z,0.00
2019-05-18T01:20:51.263Z,0.00
2019-05-18T01:21:51.286Z,0.00
2019-05-18T01:22:51.312Z,0.00
2019-05-18T01:23:51.335Z,0.00
2019-05-18T01:24:51.366Z,0.00
2019-05-18T01:25:51.395Z,0.00
2019-05-18T01:26:51.415Z,0.00
2019-05-18T01:27:51.457Z,0.00
2019-05-18T01:28:51.469Z,0.00
2019-05-18T01:29:51.500Z,0.00
2019-05-18T01:30:51.516Z,0.00
2019-05-18T01:31:51.544Z,0.00
2019-05-18T01:32:51.573Z,0.00
2019-05-18T01:33:51.596Z,0.00
2019-05-18T01:34:51.621Z,0.00
2019-05-18T01:35:51.648Z,0.00
2019-05-18T01:36:51.671Z,0.00
2019-05-18T01:37:51.699Z,0.00
2019-05-18T01:38:51.727Z,0.00
2019-05-18T01:39:51.748Z,0.00
2019-05-18T01:40:51.783Z,0.00
2019-05-18T01:41:51.803Z,0.00
2019-05-18T01:42:51.837Z,0.00
2019-05-18T01:43:51.860Z,0.00
2019-05-18T01:44:51.879Z,0.00
2019-05-18T01:45:51.911Z,0.00
2019-05-18T01:46:51.937Z,0.00
2019-05-18T01:47:51.958Z,0.00
2019-05-18T01:48:51.985Z,0.00
2019-05-18T01:49:52.022Z,0.00
2019-05-18T01:50:52.035Z,0.00
2019-05-18T01:51:52.066Z,0.00
2019-05-18T01:52:52.089Z,0.00
2019-05-18T01:53:52.112Z,0.00
2019-05-18T01:54:52.142Z,0.00
2019-05-18T01:55:52.165Z,0.00
2019-05-18T01:56:52.191Z,0.00
2019-05-18T01:57:52.220Z,0.00
2019-05-18T01:58:52.237Z,0.00
2019-05-18T01:59:52.266Z,0.00
2019-05-18T02:00:52.289Z,0.00
2019-05-18T02:01:52.316Z,0.00
2019-05-18T02:02:52.341Z,0.00
2019-05-18T02:03:52.367Z,0.00
2019-05-18T02:04:52.393Z,0.00
2019-05-18T02:05:52.427Z,0.00
2019-05-18T02:06:52.448Z,0.00
2019-05-18T02:07:52.480Z,0.00
2019-05-18T02:08:52.496Z,0.00
2019-05-18T02:09:52.522Z,0.00
2019-05-18T02:10:52.549Z,0.00
2019-05-18T02:11:52.590Z,0.00
2019-05-18T02:12:52.601Z,0.00
2019-05-18T02:13:52.626Z,0.00
2019-05-18T02:14:52.655Z,0.00
2019-05-18T02:15:52.680Z,0.00
2019-05-18T02:16:52.702Z,0.00
2019-05-18T02:17:52.735Z,0.00
2019-05-18T02:18:52.753Z,0.00
2019-05-18T02:19:52.780Z,0.00
2019-05-18T02:20:52.810Z,0.00
2019-05-18T02:21:52.833Z,0.00
2019-05-18T02:22:52.864Z,0.00
2019-05-18T02:23:52.883Z,0.00
2019-05-18T02:24:52.906Z,0.00
2019-05-18T02:25:52.940Z,0.00
2019-05-18T02:26:52.962Z,0.00
2019-05-18T02:27:52.992Z,0.00
2019-05-18T02:28:53.011Z,0.00
2019-05-18T02:29:53.037Z,0.00
2019-05-18T02:30:53.071Z,0.00
2019-05-18T02:31:53.091Z,0.00
2019-05-18T02:32:53.122Z,0.00
2019-05-18T02:33:53.146Z,0.00
2019-05-18T02:34:53.167Z,0.00
2019-05-18T02:35:53.190Z,0.00
2019-05-18T02:36:53.221Z,0.00
2019-05-18T02:37:53.254Z,0.00
2019-05-18T02:38:53.270Z,0.00
2019-05-18T02:39:53.301Z,0.00
2019-05-18T02:40:53.322Z,0.00
2019-05-18T02:41:53.344Z,0.00
2019-05-18T02:42:53.375Z,0.00
2019-05-18T02:43:53.396Z,0.00
2019-05-18T02:44:53.420Z,0.00
2019-05-18T02:45:53.460Z,0.00
2019-05-18T02:46:53.478Z,0.00
2019-05-18T02:47:53.504Z,0.00
2019-05-18T02:48:53.531Z,0.00
2019-05-18T02:49:53.553Z,0.00
2019-05-18T02:50:53.576Z,0.00
2019-05-18T02:51:53.598Z,0.00
2019-05-18T02:52:53.633Z,0.00
2019-05-18T02:53:53.658Z,4.00
2019-05-18T02:54:53.679Z,4.00
2019-05-18T02:55:53.707Z,4.00
2019-05-18T02:56:53.729Z,4.00
2019-05-18T02:57:53.759Z,0.00
2019-05-18T02:58:53.780Z,4.00
2019-05-18T02:59:53.811Z,4.00
2019-05-18T03:00:53.841Z,8.00
2019-05-18T03:01:53.858Z,4.00
2019-05-18T03:02:53.891Z,8.00
2019-05-18T03:03:53.909Z,8.00
2019-05-18T03:04:53.942Z,8.00
2019-05-18T03:05:53.962Z,12.00
2019-05-18T03:06:53.989Z,12.00
2019-05-18T03:07:54.011Z,12.00
2019-05-18T03:08:54.036Z,16.00
2019-05-18T03:09:54.117Z,16.00
2019-05-18T03:10:54.089Z,20.00
2019-05-18T03:11:54.110Z,24.00
2019-05-18T03:12:54.147Z,28.00
2019-05-18T03:13:54.164Z,28.00
2019-05-18T03:14:54.191Z,36.00
2019-05-18T03:15:54.215Z,40.00
2019-05-18T03:16:54.239Z,44.00
2019-05-18T03:17:54.266Z,48.00
2019-05-18T03:19:07.472Z,52.00
2019-05-18T03:19:54.326Z,64.00
2019-05-18T03:20:54.343Z,68.00
2019-05-18T03:21:54.372Z,76.00
2019-05-18T03:22:54.405Z,84.00
2019-05-18T03:23:54.420Z,92.00
2019-05-18T03:24:54.455Z,104.00
2019-05-18T03:25:54.470Z,112.00
2019-05-18T03:26:54.496Z,124.00
2019-05-18T03:27:54.525Z,136.00
2019-05-18T03:28:54.548Z,152.00
2019-05-18T03:29:54.573Z,164.00
2019-05-18T03:30:54.598Z,176.00
2019-05-18T03:31:54.630Z,192.00
2019-05-18T03:32:54.655Z,208.00
2019-05-18T03:33:54.676Z,228.00
2019-05-18T03:34:54.704Z,244.00
2019-05-18T03:35:54.725Z,264.00
2019-05-18T03:36:54.758Z,280.00
2019-05-18T03:37:54.784Z,300.00
2019-05-18T03:38:54.804Z,324.00
2019-05-18T03:39:54.829Z,344.00
2019-05-18T03:40:54.854Z,368.00
2019-05-18T03:41:54.880Z,392.00
2019-05-18T03:42:54.903Z,416.00
2019-05-18T03:43:54.937Z,444.00
2019-05-18T03:44:54.956Z,468.00
2019-05-18T03:45:54.996Z,496.00
2019-05-18T03:46:55.005Z,524.00
2019-05-18T03:47:55.031Z,552.00
2019-05-18T03:48:55.056Z,584.00
2019-05-18T03:49:55.084Z,612.00
2019-05-18T03:50:55.110Z,644.00
2019-05-18T03:51:55.142Z,676.00
2019-05-18T03:52:55.157Z,712.00
2019-05-18T03:53:55.185Z,744.00
2019-05-18T03:54:55.208Z,776.00
2019-05-18T03:55:55.233Z,812.00
2019-05-18T03:56:55.266Z,848.00
2019-05-18T03:57:55.293Z,884.00
2019-05-18T03:58:55.315Z,920.00
2019-05-18T03:59:55.344Z,960.00
2019-05-18T04:00:55.366Z,996.00
2019-05-18T04:01:55.390Z,1032.00
2019-05-18T04:02:55.445Z,1072.00
2019-05-18T04:03:55.441Z,1112.00
2019-05-18T04:04:55.468Z,1148.00
2019-05-18T04:05:55.492Z,1192.00
2019-05-18T04:06:55.523Z,1228.00
2019-05-18T04:07:55.539Z,1264.00
2019-05-18T04:08:55.566Z,1304.00
2019-05-18T04:09:55.605Z,1344.00
2019-05-18T04:10:55.617Z,1376.00
2019-05-18T04:11:55.648Z,1416.00
2019-05-18T04:12:55.692Z,1452.00
2019-05-18T04:13:55.692Z,1492.00
2019-05-18T04:14:55.722Z,1528.00
2019-05-18T04:15:55.753Z,1564.00
2019-05-18T04:16:55.772Z,1596.00
2019-05-18T04:17:55.800Z,1640.00
2019-05-18T04:18:55.828Z,1692.00
2019-05-18T04:19:55.851Z,1744.00
2019-05-18T04:20:55.881Z,1784.00
2019-05-18T04:21:55.902Z,1832.00
2019-05-18T04:22:55.929Z,1880.00
2019-05-18T04:23:55.950Z,1920.00
2019-05-18T04:24:55.985Z,1968.00
2019-05-18T04:25:56.008Z,2008.00
2019-05-18T04:26:56.038Z,2056.00
2019-05-18T04:27:56.052Z,2104.00
2019-05-18T04:28:56.084Z,2148.00
2019-05-18T04:29:56.107Z,2192.00
2019-05-18T04:30:56.135Z,2240.00
2019-05-18T04:31:56.154Z,2312.00
2019-05-18T04:32:56.187Z,2424.00
2019-05-18T04:33:56.212Z,2448.00
2019-05-18T04:34:56.234Z,2416.00
2019-05-18T04:35:56.268Z,2512.00
2019-05-18T04:36:56.283Z,2632.00
2019-05-18T04:37:56.310Z,2608.00
2019-05-18T04:38:56.335Z,2604.00
2019-05-18T04:39:56.397Z,2652.00
2019-05-18T04:40:56.384Z,2704.00
2019-05-18T04:41:56.415Z,2756.00
2019-05-18T04:42:56.441Z,2804.00
2019-05-18T04:43:56.465Z,2848.00
2019-05-18T04:44:56.484Z,2892.00
2019-05-18T04:45:56.518Z,2936.00
2019-05-18T04:46:56.538Z,2980.00
2019-05-18T04:47:56.564Z,3180.00
2019-05-18T04:48:56.591Z,3556.00
2019-05-18T04:50:05.074Z,3928.00
2019-05-18T04:50:56.645Z,4076.00
2019-05-18T04:51:56.669Z,4136.00
2019-05-18T04:52:56.692Z,4224.00
2019-05-18T04:53:56.719Z,4304.00
2019-05-18T04:54:56.744Z,4388.00
2019-05-18T04:55:56.770Z,4448.00
2019-05-18T04:56:56.810Z,4508.00
2019-05-18T04:57:56.822Z,4604.00
2019-05-18T04:58:56.850Z,4696.00
2019-05-18T04:59:56.875Z,4808.00
2019-05-18T05:00:56.900Z,4920.00
2019-05-18T05:01:56.926Z,5040.00
2019-05-18T05:02:56.948Z,5144.00
2019-05-18T05:03:56.976Z,5228.00
2019-05-18T05:04:57.093Z,5344.00
2019-05-18T05:05:57.026Z,5468.00
2019-05-18T05:06:57.055Z,5568.00
2019-05-18T05:07:57.080Z,5676.00
2019-05-18T05:08:57.109Z,5704.00
2019-05-18T05:09:57.133Z,5872.00
2019-05-18T05:10:57.161Z,5976.00
2019-05-18T05:11:57.184Z,6080.00
2019-05-18T05:12:57.213Z,6172.00
2019-05-18T05:13:57.236Z,6308.00
2019-05-18T05:15:30.474Z,6448.00
2019-05-18T05:15:57.291Z,6588.00
2019-05-18T05:16:57.318Z,6684.00
2019-05-18T05:17:57.352Z,6736.00
2019-05-18T05:18:57.373Z,6876.00
2019-05-18T05:19:57.396Z,6884.00
2019-05-18T05:20:57.431Z,6256.00
2019-05-18T05:21:57.451Z,6856.00
2019-05-18T05:22:57.479Z,6620.00
2019-05-18T05:23:57.502Z,5900.00
2019-05-18T05:24:57.531Z,6532.00
2019-05-18T05:25:57.557Z,7388.00
2019-05-18T05:26:57.584Z,7808.00
2019-05-18T05:27:57.610Z,6976.00
2019-05-18T05:28:57.639Z,5888.00
2019-05-18T05:29:57.667Z,7120.00
2019-05-18T05:30:57.697Z,8144.00
2019-05-18T05:31:57.730Z,9256.00
2019-05-18T05:32:57.754Z,9976.00
2019-05-18T05:33:57.776Z,11776.00
2019-05-18T05:34:57.803Z,13900.00
2019-05-18T05:35:57.831Z,15680.00
2019-05-18T05:36:57.864Z,16448.00
2019-05-18T05:37:57.885Z,16544.00
2019-05-18T05:38:57.918Z,16608.00
2019-05-18T05:39:57.938Z,17728.00
2019-05-18T05:40:57.975Z,19488.00
2019-05-18T05:41:57.995Z,21344.00
2019-05-18T05:42:58.019Z,24352.00
2019-05-18T05:43:58.045Z,27712.00
2019-05-18T05:44:58.077Z,30304.00
2019-05-18T05:45:58.101Z,33344.00
2019-05-18T05:46:58.132Z,36640.00
2019-05-18T05:47:58.161Z,36576.00
2019-05-18T05:48:58.184Z,32800.00
2019-05-18T05:49:58.215Z,30496.00
2019-05-18T05:50:58.242Z,28768.00
2019-05-18T05:51:58.268Z,27968.00
2019-05-18T05:52:58.298Z,25952.00
2019-05-18T05:53:58.322Z,25472.00
2019-05-18T05:54:58.353Z,24000.00
2019-05-18T05:55:58.379Z,19392.00
2019-05-18T05:56:58.410Z,17472.00
2019-05-18T05:57:58.439Z,21760.00
2019-05-18T05:58:58.472Z,21536.00
2019-05-18T05:59:58.493Z,22976.00
2019-05-18T06:00:58.521Z,21856.00
2019-05-18T06:01:58.549Z,20832.00
2019-05-18T06:02:58.575Z,21856.00
2019-05-18T06:03:58.606Z,22144.00
2019-05-18T06:04:58.632Z,14828.00
2019-05-18T06:05:58.659Z,21216.00
2019-05-18T06:06:58.689Z,15932.00
2019-05-18T06:07:58.715Z,18848.00
2019-05-18T06:08:58.747Z,18880.00
2019-05-18T06:09:58.774Z,19616.00
2019-05-18T06:10:58.806Z,21536.00
2019-05-18T06:11:58.842Z,20384.00
2019-05-18T06:12:58.859Z,18816.00
2019-05-18T06:13:58.888Z,19520.00
2019-05-18T06:14:58.919Z,19872.00
2019-05-18T06:15:58.944Z,20000.00
2019-05-18T06:16:58.975Z,20352.00
2019-05-18T06:17:59.035Z,20064.00
2019-05-18T06:18:59.033Z,20352.00
2019-05-18T06:19:59.060Z,20736.00
2019-05-18T06:20:59.094Z,20864.00
2019-05-18T06:21:59.121Z,21152.00
2019-05-18T06:22:59.146Z,22080.00
2019-05-18T06:23:59.174Z,23488.00
2019-05-18T06:24:59.205Z,23680.00
2019-05-18T06:25:59.233Z,21664.00
2019-05-18T06:26:59.262Z,21440.00
2019-05-18T06:27:59.291Z,23872.00
2019-05-18T06:28:59.321Z,25472.00
2019-05-18T06:29:59.351Z,26336.00
2019-05-18T06:30:59.381Z,25568.00
2019-05-18T06:31:59.416Z,25248.00
2019-05-18T06:32:59.440Z,25760.00
2019-05-18T06:33:59.473Z,26976.00
2019-05-18T06:34:59.500Z,29632.00
2019-05-18T06:35:59.529Z,32544.00
2019-05-18T06:36:59.563Z,33472.00
2019-05-18T06:37:59.595Z,37600.00
2019-05-18T06:38:59.618Z,42784.00
2019-05-18T06:39:59.649Z,40448.00
2019-05-18T06:40:59.681Z,32800.00
2019-05-18T06:41:59.706Z,27008.00
2019-05-18T06:42:59.843Z,24576.00
2019-05-18T06:49:52.339Z,19616.00
2019-05-18T06:51:06.363Z,19488.00
2019-05-18T06:51:52.398Z,19520.00
2019-05-18T06:52:52.419Z,19648.00
2019-05-18T06:53:53.866Z,19872.00
2019-05-18T06:54:52.483Z,21280.00
2019-05-18T06:55:52.516Z,27808.00
2019-05-18T06:56:52.550Z,38336.00
2019-05-18T06:57:52.579Z,44000.00
2019-05-18T07:01:48.563Z,45376.00
2019-05-18T07:02:48.592Z,47488.00
2019-05-18T07:03:48.629Z,48608.00
2019-05-18T07:04:48.652Z,48384.00
2019-05-18T07:05:48.684Z,47648.00
2019-05-18T07:06:48.718Z,50496.00
2019-05-18T07:09:18.871Z,51360.00
2019-05-18T07:10:21.523Z,51936.00
2019-05-18T07:11:18.942Z,52832.00
2019-05-18T07:12:18.962Z,53664.00
2019-05-18T07:13:18.996Z,54016.00
2019-05-18T07:14:25.889Z,55360.00
2019-05-18T07:15:19.056Z,47328.00
2019-05-18T07:16:19.104Z,58816.00
2019-05-18T07:17:19.124Z,58880.00
2019-05-18T07:18:19.158Z,58848.00
2019-05-18T07:19:19.189Z,48544.00
2019-05-18T07:20:19.222Z,57504.00
2019-05-18T07:21:22.478Z,58336.00
2019-05-18T07:22:19.283Z,59488.00
2019-05-18T07:23:19.321Z,59040.00
2019-05-18T07:24:19.348Z,55744.00
2019-05-18T07:25:19.381Z,54944.00
2019-05-18T07:26:19.420Z,52160.00
2019-05-18T07:27:19.449Z,49024.00
2019-05-18T07:28:19.482Z,49216.00
2019-05-18T07:29:19.516Z,50976.00
2019-05-18T07:30:19.555Z,53472.00
2019-05-18T07:31:19.580Z,51648.00
2019-05-18T07:32:19.613Z,55392.00
2019-05-18T07:33:19.655Z,55968.00
2019-05-18T07:34:19.681Z,56960.00
2019-05-18T07:35:19.716Z,55552.00
2019-05-18T07:36:19.749Z,56608.00
2019-05-18T07:37:19.782Z,58592.00
2019-05-18T07:38:19.820Z,62624.00
2019-05-18T07:39:19.856Z,59360.00
2019-05-18T07:40:19.885Z,56480.00
2019-05-18T07:41:19.916Z,53184.00
2019-05-18T07:42:22.570Z,49248.00
2019-05-18T07:43:19.989Z,51296.00
2019-05-18T07:44:20.020Z,55424.00
2019-05-18T07:46:02.609Z,56992.00
2019-05-18T07:47:02.641Z,53728.00
2019-05-18T07:48:02.682Z,56544.00
2019-05-18T07:49:02.715Z,57536.00
2019-05-18T07:50:02.759Z,60064.00
2019-05-18T07:51:02.775Z,63392.00
2019-05-18T07:52:02.809Z,64640.00
2019-05-18T07:53:02.850Z,64192.00
2019-05-18T07:54:02.886Z,63776.00
2019-05-18T07:55:02.915Z,64928.00
2019-05-18T07:56:02.948Z,64160.00
2019-05-18T07:57:02.982Z,61408.00
2019-05-18T07:58:03.019Z,61728.00
2019-05-18T07:59:03.047Z,65152.00
2019-05-18T08:00:03.085Z,66144.00
2019-05-18T08:01:03.114Z,67424.00
2019-05-18T08:02:03.148Z,66720.00
2019-05-18T08:03:03.216Z,65760.00
2019-05-18T08:04:07.056Z,67040.00
2019-05-18T08:05:03.253Z,67328.00
2019-05-18T08:06:03.332Z,67456.00
2019-05-18T08:07:03.330Z,68096.00
2019-05-18T08:08:03.358Z,68864.00
2019-05-18T08:09:03.391Z,68832.00
2019-05-18T08:10:03.433Z,70816.00
2019-05-18T08:11:03.462Z,70464.00
2019-05-18T08:12:03.511Z,69728.00
2019-05-18T08:13:03.535Z,71456.00
2019-05-18T08:14:03.570Z,74240.00
2019-05-18T08:15:03.611Z,71808.00
2019-05-18T08:16:03.647Z,73248.00
2019-05-18T08:17:03.682Z,70336.00
2019-05-18T08:18:03.710Z,68832.00
2019-05-18T08:19:03.750Z,60800.00
2019-05-18T08:20:03.783Z,56736.00
2019-05-18T08:21:03.823Z,56320.00
2019-05-18T08:22:03.854Z,64224.00
2019-05-18T08:23:03.888Z,61504.00
2019-05-18T08:24:03.939Z,71520.00
2019-05-18T08:25:03.961Z,70048.00
2019-05-18T08:26:04.002Z,61088.00
2019-05-18T08:27:04.042Z,57504.00
2019-05-18T08:28:04.071Z,45792.00
2019-05-18T08:29:04.106Z,44224.00
2019-05-18T08:30:04.144Z,42560.00
2019-05-18T08:31:04.381Z,44896.00
2019-05-18T08:32:04.214Z,40928.00
2019-05-18T08:33:04.248Z,39104.00
2019-05-18T08:34:04.285Z,37760.00
2019-05-18T08:35:04.324Z,42816.00
2019-05-18T08:36:04.355Z,44608.00
2019-05-18T08:37:04.406Z,60640.00
2019-05-18T08:38:04.534Z,60128.00
2019-05-18T08:39:04.488Z,69536.00
2019-05-18T08:40:04.517Z,63072.00
2019-05-18T08:41:04.605Z,61632.00
2019-05-18T08:42:04.571Z,67936.00
2019-05-18T08:43:04.606Z,61152.00
2019-05-18T08:44:04.641Z,63552.00
2019-05-18T08:46:04.715Z,64768.00
2019-05-18T08:47:05.017Z,66240.00
2019-05-18T08:48:04.788Z,66528.00
2019-05-18T08:49:05.021Z,64896.00
2019-05-18T08:50:05.060Z,62272.00
2019-05-18T08:51:47.452Z,62464.00
2019-05-18T08:52:47.488Z,60192.00
2019-05-18T08:53:47.546Z,62400.00
2019-05-18T08:54:47.557Z,60288.00
2019-05-18T08:55:47.596Z,63776.00
2019-05-18T08:56:47.630Z,68864.00
2019-05-18T08:57:47.666Z,72480.00
2019-05-18T08:58:47.709Z,67072.00
2019-05-18T08:59:47.742Z,69856.00
2019-05-18T09:00:47.778Z,76544.00
2019-05-18T09:01:47.812Z,66624.00
2019-05-18T09:02:47.848Z,60736.00
2019-05-18T09:03:47.889Z,56384.00
2019-05-18T09:04:47.918Z,56480.00
2019-05-18T09:05:47.962Z,55616.00
2019-05-18T09:06:47.991Z,57888.00
2019-05-18T09:07:48.027Z,66880.00
2019-05-18T09:08:48.070Z,69376.00
2019-05-18T09:11:23.245Z,67648.00
2019-05-18T09:12:23.280Z,67264.00
2019-05-18T09:13:23.323Z,70176.00
2019-05-18T09:14:23.350Z,61792.00
2019-05-18T09:15:23.390Z,64672.00
2019-05-18T09:16:23.422Z,59552.00
2019-05-18T09:17:23.463Z,60992.00
2019-05-18T09:18:23.503Z,55456.00
2019-05-18T09:19:23.535Z,59040.00
2019-05-18T09:20:23.578Z,61152.00
2019-05-18T09:21:23.607Z,62400.00
2019-05-18T09:22:23.655Z,64064.00
2019-05-18T09:23:23.683Z,67456.00
2019-05-18T09:24:23.714Z,66400.00
2019-05-18T09:25:23.757Z,66752.00
2019-05-18T09:26:23.785Z,72352.00
2019-05-18T09:27:23.822Z,71808.00
2019-05-18T09:28:23.865Z,73568.00
2019-05-18T09:29:23.902Z,69728.00
2019-05-18T09:30:23.931Z,71872.00
2019-05-18T09:31:23.972Z,80864.00
2019-05-18T09:32:24.015Z,80288.00
2019-05-18T09:33:24.040Z,74496.00
2019-05-18T09:34:24.089Z,70656.00
2019-05-18T09:35:24.118Z,68384.00
2019-05-18T09:37:11.734Z,76288.00
2019-05-18T09:38:11.759Z,76480.00
2019-05-18T09:39:11.802Z,75168.00
2019-05-18T09:40:11.829Z,78272.00
2019-05-18T09:41:11.867Z,72640.00
2019-05-18T09:42:11.904Z,70464.00
2019-05-18T09:43:11.940Z,72640.00
2019-05-18T09:44:12.187Z,72768.00
2019-05-18T09:45:12.018Z,76128.00
2019-05-18T09:46:12.052Z,68544.00
2019-05-18T09:47:12.090Z,61984.00
2019-05-18T09:49:12.165Z,68576.00
2019-05-18T09:50:12.196Z,71232.00
2019-05-18T09:51:12.236Z,74400.00
2019-05-18T09:52:12.271Z,69920.00
2019-05-18T09:53:12.309Z,60736.00
2019-05-18T09:54:12.352Z,56704.00
2019-05-18T09:55:12.384Z,54560.00
2019-05-18T09:56:12.440Z,59104.00
2019-05-18T09:57:12.459Z,58720.00
2019-05-18T09:58:12.504Z,54400.00
2019-05-18T09:59:12.532Z,61056.00
2019-05-18T10:00:12.567Z,60064.00
2019-05-18T10:01:12.612Z,61376.00
2019-05-18T10:02:12.642Z,61472.00
2019-05-18T10:03:12.688Z,62080.00
2019-05-18T10:04:12.721Z,65248.00
2019-05-18T10:05:12.981Z,59616.00
2019-05-18T10:06:12.795Z,60576.00
2019-05-18T10:07:12.834Z,58816.00
2019-05-18T10:08:12.863Z,58592.00
2019-05-18T10:09:12.903Z,56864.00
2019-05-18T10:10:12.938Z,56928.00
2019-05-18T10:11:12.979Z,54144.00
2019-05-18T10:12:13.021Z,54880.00
2019-05-18T10:13:13.059Z,54144.00
2019-05-18T10:14:13.090Z,52448.00
2019-05-18T10:15:13.124Z,58336.00
2019-05-18T10:16:13.201Z,51936.00
2019-05-18T10:17:13.204Z,55616.00
2019-05-18T10:18:13.238Z,61376.00
2019-05-18T10:19:13.282Z,57216.00
2019-05-18T10:20:13.307Z,54176.00
2019-05-18T10:21:13.367Z,74144.00
2019-05-18T10:22:13.387Z,72928.00
2019-05-18T10:23:14.048Z,70208.00
2019-05-18T10:24:13.455Z,68800.00
2019-05-18T10:25:13.516Z,62720.00
2019-05-18T10:26:13.530Z,62976.00
2019-05-18T10:27:13.564Z,66368.00
2019-05-18T10:28:13.602Z,69152.00
2019-05-18T10:29:13.649Z,70464.00
2019-05-18T10:30:13.676Z,72640.00
2019-05-18T10:31:13.711Z,74880.00
2019-05-18T10:32:13.747Z,59712.00
2019-05-18T10:33:13.786Z,72640.00
2019-05-18T10:34:13.828Z,49856.00
2019-05-18T10:35:13.859Z,28256.00
2019-05-18T10:36:13.898Z,24928.00
2019-05-18T10:37:13.941Z,24832.00
2019-05-18T10:38:13.972Z,26624.00
2019-05-18T10:39:14.005Z,29120.00
2019-05-18T10:40:14.044Z,35040.00
2019-05-18T10:41:14.081Z,36224.00
2019-05-18T10:42:14.118Z,30400.00
2019-05-18T10:43:14.154Z,30336.00
2019-05-18T10:44:14.187Z,34208.00
2019-05-18T10:45:14.226Z,45664.00
2019-05-18T10:46:14.263Z,50144.00
2019-05-18T10:47:14.295Z,64096.00
2019-05-18T10:48:14.443Z,66976.00
2019-05-18T10:49:14.369Z,68160.00
2019-05-18T10:50:14.406Z,65664.00
2019-05-18T10:51:14.439Z,60480.00
2019-05-18T10:52:14.475Z,68640.00
2019-05-18T10:53:27.886Z,75552.00
2019-05-18T10:54:14.549Z,39040.00
2019-05-18T10:55:14.585Z,43328.00
2019-05-18T10:56:14.619Z,40192.00
2019-05-18T10:57:14.655Z,26464.00
2019-05-18T10:58:14.702Z,24672.00
2019-05-18T10:59:14.729Z,24640.00
2019-05-18T11:00:14.786Z,25152.00
2019-05-18T11:01:14.803Z,25952.00
2019-05-18T11:02:14.840Z,26752.00
2019-05-18T11:03:14.875Z,34784.00
2019-05-18T11:04:14.912Z,46592.00
2019-05-18T11:05:14.949Z,35456.00
2019-05-18T11:06:14.982Z,33184.00
2019-05-18T11:07:15.014Z,36384.00
2019-05-18T11:08:15.053Z,34336.00
2019-05-18T11:09:15.092Z,63648.00
2019-05-18T11:10:15.124Z,64128.00
2019-05-18T11:11:15.156Z,43616.00
2019-05-18T11:12:15.197Z,37312.00
2019-05-18T11:13:17.189Z,49600.00
2019-05-18T11:14:18.601Z,58688.00
2019-05-18T11:15:15.300Z,44480.00
2019-05-18T11:16:15.335Z,66656.00
2019-05-18T11:17:15.370Z,61344.00
2019-05-18T11:18:15.406Z,36480.00
2019-05-18T11:19:15.442Z,67936.00
2019-05-18T11:20:15.484Z,39840.00
2019-05-18T11:21:15.523Z,60608.00
2019-05-18T11:22:15.550Z,48288.00
2019-05-18T11:23:15.591Z,37344.00
2019-05-18T11:24:15.621Z,24864.00
2019-05-18T11:25:15.663Z,30272.00
2019-05-18T11:26:15.694Z,25248.00
2019-05-18T11:27:15.731Z,23936.00
2019-05-18T11:28:15.763Z,26816.00
2019-05-18T11:29:15.806Z,27616.00
2019-05-18T11:30:15.835Z,26912.00
2019-05-18T11:31:15.874Z,26656.00
2019-05-18T11:32:15.907Z,25984.00
2019-05-18T11:33:15.947Z,24928.00
2019-05-18T11:34:15.988Z,24352.00
2019-05-18T11:35:16.024Z,23776.00
2019-05-18T11:36:16.053Z,23296.00
2019-05-18T11:37:16.092Z,23232.00
2019-05-18T11:38:16.126Z,23456.00
2019-05-18T11:39:16.169Z,23552.00
2019-05-18T11:40:16.207Z,23712.00
2019-05-18T11:41:16.236Z,23648.00
2019-05-18T11:42:16.274Z,23424.00
2019-05-18T11:43:16.340Z,23424.00
2019-05-18T11:44:16.349Z,23520.00
2019-05-18T11:45:16.383Z,23264.00
2019-05-18T11:46:16.432Z,23936.00
2019-05-18T11:47:16.461Z,24576.00
2019-05-18T11:48:16.498Z,24000.00
2019-05-18T11:49:16.537Z,15344.00
2019-05-18T11:50:16.579Z,15180.00
2019-05-18T11:51:16.611Z,15232.00
2019-05-18T11:52:16.647Z,21504.00
2019-05-18T11:53:16.682Z,15328.00
2019-05-18T11:54:16.720Z,12516.00
2019-05-18T11:55:16.756Z,12308.00
2019-05-18T11:56:16.796Z,12208.00
2019-05-18T11:57:16.832Z,12528.00
2019-05-18T11:58:16.892Z,13048.00
2019-05-18T11:59:16.903Z,18816.00
2019-05-18T12:00:16.948Z,21152.00
2019-05-18T12:01:16.985Z,13512.00
2019-05-18T12:02:17.014Z,13620.00
2019-05-18T12:03:17.069Z,20704.00
2019-05-18T12:04:17.098Z,17420.00
2019-05-18T12:05:17.167Z,13416.00
2019-05-18T12:06:17.160Z,14540.00
2019-05-18T12:07:17.197Z,20960.00
2019-05-18T12:08:17.236Z,20768.00
2019-05-18T12:09:17.267Z,20704.00
2019-05-18T12:10:18.593Z,20736.00
2019-05-18T12:11:17.337Z,20672.00
2019-05-18T12:12:17.372Z,20832.00
2019-05-18T12:13:17.414Z,20992.00
2019-05-18T12:14:17.452Z,20864.00
2019-05-18T12:15:17.480Z,11120.00
2019-05-18T12:16:17.648Z,10628.00
2019-05-18T12:17:17.553Z,10456.00
2019-05-18T12:18:17.591Z,10864.00
2019-05-18T12:19:17.628Z,11356.00
2019-05-18T12:20:17.671Z,12024.00
2019-05-18T12:21:17.702Z,12656.00
2019-05-18T12:22:17.732Z,13424.00
2019-05-18T12:23:17.771Z,14104.00
2019-05-18T12:24:17.810Z,14668.00
2019-05-18T12:25:17.842Z,14736.00
2019-05-18T12:26:17.876Z,14428.00
2019-05-18T12:27:17.909Z,13928.00
2019-05-18T12:28:17.945Z,13492.00
2019-05-18T12:29:17.983Z,13052.00